Time;durP1;ratioP1;P1;durP2;ratioP2;P2;SDS_P1;SDS_P2;PMS_P1;PMS_P2;Temp;Humidity;BMP_temperature;BMP_pressure;BME280_temperature;BME280_humidity;BME280_pressure;Samples;Min_cycle;Max_cycle;Signal;HPM_P1;HPM_P2
2022/06/05 00:00:29;;;;;;;15.10;9.10;;;11.20;99.90;;;;;;5067217;28;20043;-79
2022/06/05 00:02:55;;;;;;;15.48;9.15;;;11.20;99.90;;;;;;5072067;28;20087;-79
2022/06/05 00:05:28;;;;;;;18.65;9.95;;;11.20;99.90;;;;;;5060490;28;20067;-79
2022/06/05 00:08:05;;;;;;;16.65;9.30;;;11.20;99.90;;;;;;5066233;28;20387;-79
2022/06/05 00:10:39;;;;;;;12.70;9.43;;;11.10;99.90;;;;;;5062671;28;20036;-79
2022/06/05 00:13:34;;;;;;;12.95;8.50;;;11.10;99.90;;;;;;5092342;28;20059;-79
2022/06/05 00:15:59;;;;;;;14.70;9.85;;;11.10;99.90;;;;;;5092327;28;20482;-80
2022/06/05 00:18:25;;;;;;;17.60;10.43;;;11.00;99.90;;;;;;5083665;28;20042;-80
2022/06/05 00:20:51;;;;;;;15.52;9.70;;;11.00;99.90;;;;;;5077762;28;20068;-79
2022/06/05 00:23:16;;;;;;;17.15;9.63;;;11.00;99.90;;;;;;5063365;28;20036;-79
2022/06/05 00:25:48;;;;;;;19.58;10.98;;;10.90;99.90;;;;;;5082880;28;20048;-80
2022/06/05 00:28:18;;;;;;;17.23;10.70;;;10.90;99.90;;;;;;5078755;28;20037;-80
2022/06/05 00:31:00;;;;;;;15.40;10.15;;;10.90;99.90;;;;;;5090970;28;20398;-79
2022/06/05 00:33:37;;;;;;;16.42;10.70;;;10.90;99.90;;;;;;5091942;28;20422;-79
2022/06/05 00:36:31;;;;;;;21.85;10.85;;;10.90;99.90;;;;;;5085806;28;20036;-79
2022/06/05 00:39:24;;;;;;;19.15;10.98;;;10.90;99.90;;;;;;5080556;28;20393;-79
2022/06/05 00:42:09;;;;;;;16.30;9.70;;;10.90;99.90;;;;;;5089333;28;20528;-79
2022/06/05 00:44:41;;;;;;;;;;;10.90;99.90;;;;;;5072434;28;20037;-79
2022/06/05 00:47:10;;;;;;;17.58;11.25;;;10.80;99.90;;;;;;5085818;28;20383;-79
2022/06/05 00:49:45;;;;;;;17.85;11.60;;;10.80;99.90;;;;;;5079931;28;20067;-79
2022/06/05 00:52:13;;;;;;;17.88;10.32;;;10.80;99.90;;;;;;5071158;28;20045;-79
2022/06/05 00:54:39;;;;;;;17.20;10.13;;;10.80;99.90;;;;;;5071734;28;20052;-79
2022/06/05 00:57:11;;;;;;;17.88;10.43;;;10.80;99.90;;;;;;5073369;28;20392;-79
2022/06/05 00:59:42;;;;;;;16.38;10.32;;;10.80;99.90;;;;;;5079897;28;20043;-79
2022/06/05 01:02:09;;;;;;;16.83;10.95;;;10.80;99.90;;;;;;5072720;28;20497;-79
2022/06/05 01:04:38;;;;;;;16.48;9.38;;;10.90;99.90;;;;;;5089694;28;20048;-78
2022/06/05 01:07:04;;;;;;;15.43;9.43;;;10.80;99.90;;;;;;5080541;28;20036;-79
2022/06/05 01:09:30;;;;;;;17.33;9.20;;;10.80;99.90;;;;;;5079862;28;20119;-79
2022/06/05 01:12:25;;;;;;;17.20;10.95;;;10.80;99.90;;;;;;5082018;28;20516;-79
2022/06/05 01:14:57;;;;;;;23.97;11.57;;;10.90;99.90;;;;;;5072149;28;20036;-78
2022/06/05 01:17:39;;;;;;;16.90;10.20;;;10.80;99.90;;;;;;5074826;28;20510;-79
2022/06/05 01:20:29;;;;;;;13.45;8.60;;;10.90;99.90;;;;;;5073636;28;20500;-78
2022/06/05 01:23:25;;;;;;;15.63;9.57;;;10.80;99.90;;;;;;5079482;28;20037;-79
2022/06/05 01:26:17;;;;;;;17.85;10.10;;;10.80;99.90;;;;;;5085941;28;20117;-78
2022/06/05 01:29:02;;;;;;;18.33;11.18;;;10.80;99.90;;;;;;5072046;28;20045;-78
2022/06/05 01:31:35;;;;;;;14.10;9.43;;;10.80;99.90;;;;;;5075463;28;20055;-81
2022/06/05 01:34:21;;;;;;;18.63;9.88;;;10.80;99.90;;;;;;5073229;28;20043;-78
2022/06/05 01:36:55;;;;;;;18.80;9.20;;;10.80;99.90;;;;;;5084807;28;20077;-78
2022/06/05 01:39:38;;;;;;;22.53;10.67;;;10.80;99.90;;;;;;5079376;28;20540;-78
2022/06/05 01:42:13;;;;;;;14.90;9.73;;;10.80;99.90;;;;;;5070419;28;20041;-79
2022/06/05 01:44:47;;;;;;;16.20;9.13;;;10.80;99.90;;;;;;5077156;28;20468;-79
2022/06/05 01:47:22;;;;;;;17.30;10.35;;;10.80;99.90;;;;;;5084687;28;20375;-79
2022/06/05 01:50:01;;;;;;;16.52;9.73;;;10.80;99.90;;;;;;5082463;28;20379;-78
2022/06/05 01:52:36;;;;;;;15.60;9.10;;;10.80;99.90;;;;;;5081420;28;20040;-78
2022/06/05 01:55:07;;;;;;;15.00;9.85;;;10.80;99.90;;;;;;5082655;28;20036;-79
2022/06/05 01:57:34;;;;;;;21.40;10.18;;;10.80;99.90;;;;;;5062804;28;20047;-79
2022/06/05 02:00:13;;;;;;;20.98;10.40;;;10.80;99.90;;;;;;5073953;28;20074;-78
2022/06/05 02:02:46;;;;;;;14.93;9.73;;;10.70;99.90;;;;;;5078567;28;20051;-78
2022/06/05 02:05:15;;;;;;;18.90;10.23;;;10.70;99.90;;;;;;5061687;28;20043;-78
2022/06/05 02:07:47;;;;;;;17.58;10.35;;;10.80;99.90;;;;;;5061172;28;20036;-78
2022/06/05 02:10:21;;;;;;;17.92;9.32;;;10.80;99.90;;;;;;5075835;28;20043;-78
2022/06/05 02:12:47;;;;;;;15.45;10.30;;;10.70;99.90;;;;;;5078215;28;20044;-78
2022/06/05 02:15:13;;;;;;;15.10;9.48;;;10.70;99.90;;;;;;5076484;28;20031;-78
2022/06/05 02:17:39;;;;;;;18.58;9.15;;;10.70;99.90;;;;;;5085852;28;20028;-78
2022/06/05 02:20:07;;;;;;;16.60;8.75;;;10.70;99.90;;;;;;5078238;28;20069;-78
2022/06/05 02:22:40;;;;;;;17.42;9.73;;;10.70;99.90;;;;;;5087984;28;20434;-78
2022/06/05 02:25:07;;;;;;;16.48;10.80;;;10.70;99.90;;;;;;5083334;28;20090;-78
2022/06/05 02:27:33;;;;;;;15.25;8.98;;;10.70;99.90;;;;;;5075811;28;20468;-78
2022/06/05 02:29:59;;;;;;;17.75;11.68;;;10.70;99.90;;;;;;5084926;28;20048;-79
2022/06/05 02:32:36;;;;;;;15.07;8.57;;;10.60;99.90;;;;;;5077956;28;20052;-79
2022/06/05 02:35:33;;;;;;;16.40;10.02;;;10.60;99.90;;;;;;5075285;28;20032;-78
2022/06/05 02:38:16;;;;;;;18.50;10.20;;;10.60;99.90;;;;;;5083302;28;20040;-79
2022/06/05 02:40:49;;;;;;;22.48;10.95;;;10.60;99.90;;;;;;5071695;28;20568;-78
2022/06/05 02:43:24;;;;;;;18.33;11.95;;;10.60;99.90;;;;;;5082795;28;20044;-78
2022/06/05 02:45:58;;;;;;;19.27;11.43;;;10.60;99.90;;;;;;5061069;28;20054;-78
2022/06/05 02:48:29;;;;;;;16.38;9.90;;;10.60;99.90;;;;;;5077092;28;20028;-78
2022/06/05 02:51:07;;;;;;;17.38;10.80;;;10.60;99.90;;;;;;5079271;28;20494;-80
2022/06/05 02:53:55;;;;;;;17.23;10.52;;;10.60;99.90;;;;;;5083032;28;20073;-78
2022/06/05 02:56:22;;;;;;;16.48;10.45;;;10.60;99.90;;;;;;5075146;28;20488;-78
2022/06/05 02:58:50;;;;;;;15.80;10.13;;;10.60;99.90;;;;;;5088398;28;20498;-78
2022/06/05 03:04:00;;;;;;;22.80;11.73;;;10.60;99.90;;;;;;5084297;28;20093;-78
2022/06/05 03:06:30;;;;;;;18.00;10.32;;;10.60;99.90;;;;;;5093802;28;20040;-78
2022/06/05 03:08:57;;;;;;;18.60;11.55;;;10.60;99.90;;;;;;5081096;28;20076;-78
2022/06/05 03:11:22;;;;;;;18.15;10.55;;;10.60;99.90;;;;;;5073658;28;20036;-78
2022/06/05 03:13:48;;;;;;;20.13;11.10;;;10.60;99.90;;;;;;5081980;28;20044;-78
2022/06/05 03:16:14;;;;;;;19.63;11.20;;;10.60;99.90;;;;;;5079023;28;20097;-79
2022/06/05 03:18:40;;;;;;;18.17;10.88;;;10.60;99.90;;;;;;5084496;28;20113;-78
2022/06/05 03:21:06;;;;;;;21.35;11.82;;;10.60;99.90;;;;;;5083198;28;20108;-78
2022/06/05 03:23:32;;;;;;;21.50;12.18;;;10.70;99.90;;;;;;5075651;28;20467;-77
2022/06/05 03:25:58;;;;;;;21.70;11.48;;;10.70;99.90;;;;;;5076400;28;20082;-78
2022/06/05 03:28:25;;;;;;;21.50;10.82;;;10.70;99.90;;;;;;5083683;28;20467;-78
2022/06/05 03:30:51;;;;;;;17.35;11.07;;;10.70;99.90;;;;;;5084563;28;20055;-78
2022/06/05 03:33:17;;;;;;;18.92;10.50;;;10.70;99.90;;;;;;5081443;28;20042;-78
2022/06/05 03:35:45;;;;;;;23.20;12.07;;;10.70;99.90;;;;;;5080978;28;20047;-79
2022/06/05 03:38:13;;;;;;;19.25;12.82;;;10.80;99.90;;;;;;5081072;28;20029;-79
2022/06/05 03:40:47;;;;;;;16.13;10.98;;;10.80;99.90;;;;;;5080707;28;20090;-79
2022/06/05 03:43:14;;;;;;;20.52;13.02;;;10.80;99.90;;;;;;5077409;28;20442;-78
2022/06/05 03:45:40;;;;;;;21.73;11.82;;;10.80;99.90;;;;;;5086443;28;20487;-79
2022/06/05 03:48:07;;;;;;;19.02;11.32;;;10.90;99.90;;;;;;5079109;28;20070;-79
2022/06/05 03:50:33;;;;;;;19.35;11.25;;;10.90;99.90;;;;;;5086237;28;20040;-79
2022/06/05 03:52:59;;;;;;;19.90;11.80;;;10.90;99.90;;;;;;5091754;28;20071;-79
2022/06/05 03:55:25;;;;;;;28.08;13.65;;;11.00;99.90;;;;;;5092041;28;20689;-79
2022/06/05 03:57:51;;;;;;;17.05;10.80;;;11.10;99.90;;;;;;5084206;28;20048;-79
2022/06/05 04:00:19;;;;;;;23.38;12.20;;;11.10;99.90;;;;;;5073710;28;20032;-79
2022/06/05 04:02:44;;;;;;;20.77;11.95;;;11.10;99.90;;;;;;5087684;28;20044;-79
2022/06/05 04:05:14;;;;;;;15.95;10.73;;;11.20;99.90;;;;;;5074689;28;20049;-80
2022/06/05 04:07:40;;;;;;;21.75;13.18;;;11.20;99.90;;;;;;5076471;28;20528;-79
2022/06/05 04:10:07;;;;;;;21.25;11.13;;;11.30;99.90;;;;;;5081438;28;20327;-79
2022/06/05 04:12:32;;;;;;;22.45;12.63;;;11.30;99.90;;;;;;5080789;28;20040;-79
2022/06/05 04:15:02;;;;;;;17.90;11.70;;;11.40;99.90;;;;;;5072839;28;20086;-79
2022/06/05 04:17:27;;;;;;;24.08;13.82;;;11.40;99.90;;;;;;5081037;28;20036;-79
2022/06/05 04:19:53;;;;;;;20.42;12.10;;;11.50;99.90;;;;;;5056023;28;20390;-79
2022/06/05 04:22:19;;;;;;;23.92;12.15;;;11.50;99.90;;;;;;5080261;28;20515;-79
2022/06/05 04:24:45;;;;;;;20.90;13.90;;;11.60;99.90;;;;;;5076309;28;20040;-79
2022/06/05 04:27:10;;;;;;;20.08;11.77;;;11.70;99.90;;;;;;5083939;28;20091;-79
2022/06/05 04:29:36;;;;;;;22.27;12.57;;;11.70;99.90;;;;;;5075790;28;20093;-79
2022/06/05 04:32:02;;;;;;;20.98;11.57;;;11.70;99.90;;;;;;5078773;28;20517;-79
2022/06/05 04:34:27;;;;;;;21.15;11.68;;;11.70;99.90;;;;;;5079863;28;20032;-79
2022/06/05 04:36:53;;;;;;;22.40;12.18;;;11.80;99.90;;;;;;5082273;28;20028;-79
2022/06/05 04:39:18;;;;;;;20.77;12.73;;;11.90;99.90;;;;;;5080359;28;20037;-79
2022/06/05 04:41:46;;;;;;;20.30;11.45;;;11.90;99.90;;;;;;5084112;28;20089;-79
2022/06/05 04:44:13;;;;;;;22.73;11.50;;;12.00;99.90;;;;;;5077659;28;20390;-79
2022/06/05 04:46:39;;;;;;;20.77;12.30;;;12.10;99.90;;;;;;5070572;28;20433;-79
2022/06/05 04:49:07;;;;;;;21.98;12.52;;;12.10;99.90;;;;;;5085908;28;20078;-79
2022/06/05 04:51:34;;;;;;;18.75;12.07;;;12.20;99.90;;;;;;5073296;28;20143;-80
2022/06/05 04:54:03;;;;;;;22.67;12.77;;;12.40;99.90;;;;;;5087557;28;20119;-79
2022/06/05 04:56:29;;;;;;;17.73;10.80;;;12.50;99.90;;;;;;5082023;28;20043;-79
2022/06/05 04:58:56;;;;;;;18.08;12.70;;;12.60;99.90;;;;;;5086846;28;20112;-79
2022/06/05 05:01:23;;;;;;;19.60;12.27;;;12.70;99.90;;;;;;5086331;28;20035;-79
2022/06/05 05:03:52;;;;;;;19.55;11.80;;;12.80;99.90;;;;;;5094050;28;20047;-80
2022/06/05 05:06:20;;;;;;;19.30;11.63;;;12.90;99.90;;;;;;5088333;28;20421;-80
2022/06/05 05:08:45;;;;;;;18.30;12.07;;;13.00;99.90;;;;;;5093728;28;20052;-80
2022/06/05 05:11:11;;;;;;;17.83;11.60;;;13.00;99.90;;;;;;5095754;28;20047;-80
2022/06/05 05:13:37;;;;;;;18.58;12.93;;;13.10;99.90;;;;;;5080380;28;20048;-80
2022/06/05 05:16:03;;;;;;;21.83;11.77;;;13.20;99.90;;;;;;5089350;28;20040;-80
2022/06/05 05:18:29;;;;;;;16.63;11.75;;;13.40;99.90;;;;;;5098077;28;20461;-80
2022/06/05 05:21:02;;;;;;;19.42;12.55;;;13.50;99.90;;;;;;5068307;28;20071;-80
2022/06/05 05:23:28;;;;;;;18.77;12.10;;;13.60;99.90;;;;;;5082745;28;20044;-81
2022/06/05 05:25:54;;;;;;;16.92;12.25;;;13.80;99.90;;;;;;5078882;28;20494;-81
2022/06/05 05:28:20;;;;;;;20.15;12.65;;;13.80;99.90;;;;;;5089334;28;20080;-80
2022/06/05 05:30:45;;;;;;;19.80;12.23;;;14.00;99.90;;;;;;5087294;28;20097;-79
2022/06/05 05:33:12;;;;;;;13.35;9.95;;;14.10;99.90;;;;;;5087598;28;20040;-80
2022/06/05 05:35:38;;;;;;;17.25;12.23;;;14.20;99.90;;;;;;5090605;28;20043;-79
2022/06/05 05:38:03;;;;;;;14.65;10.35;;;14.30;99.90;;;;;;5085737;28;20028;-80
2022/06/05 05:43:13;;;;;;;20.25;12.30;;;14.50;99.90;;;;;;5080075;28;20044;-82
2022/06/05 05:45:39;;;;;;;18.42;11.45;;;14.60;99.90;;;;;;5082773;28;20051;-80
2022/06/05 05:48:05;;;;;;;18.60;10.98;;;14.70;99.90;;;;;;5086988;28;20049;-79
2022/06/05 05:50:31;;;;;;;16.83;10.40;;;14.80;99.90;;;;;;5096818;28;20526;-79
2022/06/05 05:52:56;;;;;;;16.25;11.50;;;14.90;99.90;;;;;;5089450;28;20072;-79
2022/06/05 05:55:22;;;;;;;16.10;10.95;;;15.00;99.90;;;;;;5092950;28;20051;-80
2022/06/05 05:57:48;;;;;;;18.95;10.95;;;15.00;99.90;;;;;;5086735;28;20043;-79
2022/06/05 06:00:17;;;;;;;15.25;9.98;;;15.00;99.90;;;;;;5093021;28;20044;-80
2022/06/05 06:02:43;;;;;;;12.70;9.80;;;15.10;99.90;;;;;;5090113;28;20050;-79
2022/06/05 06:05:12;;;;;;;15.68;10.35;;;15.20;99.90;;;;;;5079045;28;20044;-79
2022/06/05 06:07:38;;;;;;;15.23;10.85;;;15.30;99.90;;;;;;5078964;28;20131;-79
2022/06/05 06:10:05;;;;;;;13.77;9.55;;;15.40;99.90;;;;;;5085164;28;20501;-79
2022/06/05 06:12:30;;;;;;;16.25;10.93;;;15.40;99.90;;;;;;5092360;28;20395;-79
2022/06/05 06:14:56;;;;;;;15.40;10.00;;;15.60;99.90;;;;;;5066611;28;20035;-79
2022/06/05 06:17:22;;;;;;;12.27;10.27;;;15.60;99.90;;;;;;5088363;28;20039;-79
2022/06/05 06:19:47;;;;;;;13.25;9.55;;;15.70;99.90;;;;;;5090747;28;20047;-79
2022/06/05 06:22:13;;;;;;;11.98;9.05;;;15.80;99.90;;;;;;5087780;28;20040;-79
2022/06/05 06:24:39;;;;;;;11.98;8.60;;;15.90;99.90;;;;;;5064143;28;20093;-79
2022/06/05 06:27:05;;;;;;;12.32;9.63;;;16.00;99.90;;;;;;5088310;28;20036;-79
2022/06/05 06:29:31;;;;;;;15.00;9.40;;;16.10;99.90;;;;;;5070644;28;20449;-79
2022/06/05 06:31:57;;;;;;;16.52;11.13;;;16.20;99.90;;;;;;5080967;28;20103;-80
2022/06/05 06:34:22;;;;;;;12.10;9.50;;;16.30;99.90;;;;;;5060284;28;20055;-80
2022/06/05 06:36:48;;;;;;;14.88;10.23;;;16.40;99.90;;;;;;5081788;28;20482;-79
2022/06/05 06:39:14;;;;;;;14.50;9.48;;;16.50;99.90;;;;;;5090710;28;20067;-80
2022/06/05 06:41:40;;;;;;;15.77;10.32;;;16.60;99.90;;;;;;5084526;28;20036;-79
2022/06/05 06:44:06;;;;;;;13.65;8.68;;;16.70;99.90;;;;;;5091566;28;20040;-80
2022/06/05 06:46:32;;;;;;;10.40;8.90;;;16.80;99.90;;;;;;5088291;28;20043;-79
2022/06/05 06:48:58;;;;;;;12.00;9.25;;;16.90;99.90;;;;;;5083851;28;20062;-79
2022/06/05 06:51:24;;;;;;;14.13;9.45;;;17.00;99.90;;;;;;5074167;28;20165;-80
2022/06/05 06:53:50;;;;;;;14.55;9.40;;;17.10;99.90;;;;;;5074088;28;20040;-79
2022/06/05 06:56:24;;;;;;;11.23;7.78;;;17.30;99.90;;;;;;5090998;28;20086;-79
2022/06/05 06:58:49;;;;;;;13.43;8.18;;;17.60;99.90;;;;;;5081543;28;20052;-80
2022/06/05 07:01:15;;;;;;;12.73;8.68;;;17.80;99.90;;;;;;5083591;28;20397;-79
2022/06/05 07:03:41;;;;;;;11.60;8.23;;;17.90;99.90;;;;;;5078513;28;20182;-79
2022/06/05 07:06:10;;;;;;;9.30;7.60;;;18.10;99.90;;;;;;5084516;28;20040;-79
2022/06/05 07:08:36;;;;;;;10.57;7.50;;;18.30;99.90;;;;;;5081019;28;20510;-80
2022/06/05 07:11:05;;;;;;;10.30;8.10;;;18.50;99.90;;;;;;5092326;28;20554;-79
2022/06/05 07:13:31;;;;;;;11.50;7.30;;;18.70;99.90;;;;;;5078896;28;20044;-79
2022/06/05 07:15:57;;;;;;;11.65;7.47;;;18.80;99.90;;;;;;5070959;28;20593;-79
2022/06/05 07:18:22;;;;;;;11.35;8.55;;;19.00;99.90;;;;;;5070995;28;20123;-79
2022/06/05 07:20:48;;;;;;;10.55;7.97;;;19.10;99.90;;;;;;5082907;28;20131;-79
2022/06/05 07:23:14;;;;;;;9.88;7.10;;;19.20;99.90;;;;;;5081952;28;20517;-78
2022/06/05 07:25:49;;;;;;;12.02;7.60;;;19.40;99.90;;;;;;5062679;28;20036;-78
2022/06/05 07:28:15;;;;;;;;;;;19.50;99.90;;;;;;5067967;28;20129;-79
2022/06/05 07:30:41;;;;;;;7.50;6.70;;;19.50;99.90;;;;;;5077570;28;20004;-79
2022/06/05 07:33:06;;;;;;;7.90;7.10;;;19.80;99.90;;;;;;5079505;28;20045;-79
2022/06/05 07:35:32;;;;;;;9.43;7.60;;;19.90;99.90;;;;;;5077707;28;20278;-79
2022/06/05 07:37:57;;;;;;;10.48;6.90;;;20.00;99.90;;;;;;5081282;28;20040;-79
2022/06/05 07:40:23;;;;;;;7.60;6.90;;;20.10;99.90;;;;;;5091756;28;20044;-79
2022/06/05 07:42:49;;;;;;;9.63;6.15;;;20.20;99.90;;;;;;5094899;28;20091;-79
2022/06/05 07:45:16;;;;;;;7.93;6.68;;;20.40;99.90;;;;;;5086607;28;20509;-78
2022/06/05 07:47:42;;;;;;;8.98;6.25;;;20.40;99.90;;;;;;5087608;28;20457;-78
2022/06/05 07:50:08;;;;;;;8.65;6.72;;;20.50;99.90;;;;;;5080490;28;20039;-78
2022/06/05 07:55:18;;;;;;;8.23;6.45;;;20.70;99.90;;;;;;5092847;28;20044;-79
2022/06/05 07:57:44;;;;;;;6.22;5.63;;;20.80;99.90;;;;;;5084408;28;20028;-79
2022/06/05 08:00:11;;;;;;;7.38;6.28;;;20.90;99.90;;;;;;5087473;28;20402;-78
2022/06/05 08:02:38;;;;;;;8.55;6.82;;;20.90;99.90;;;;;;5089014;28;20406;-78
2022/06/05 08:05:04;;;;;;;9.00;6.28;;;21.00;99.90;;;;;;5084894;28;20044;-78
2022/06/05 08:07:32;;;;;;;6.60;5.88;;;21.20;99.90;;;;;;5076849;28;20047;-79
2022/06/05 08:09:58;;;;;;;6.90;6.00;;;21.30;99.90;;;;;;5085441;28;20044;-79
2022/06/05 08:12:27;;;;;;;7.18;5.70;;;21.40;99.90;;;;;;5078518;28;20464;-78
2022/06/05 08:14:54;;;;;;;7.63;5.82;;;21.50;99.90;;;;;;5079954;28;20033;-78
2022/06/05 08:17:23;;;;;;;6.63;5.95;;;21.60;99.90;;;;;;5084842;28;20469;-78
2022/06/05 08:19:49;;;;;;;6.65;5.95;;;21.80;98.30;;;;;;5081300;28;20527;-78
2022/06/05 08:22:16;;;;;;;8.48;6.22;;;21.80;97.70;;;;;;5086134;28;20486;-78
2022/06/05 08:24:43;;;;;;;7.20;5.90;;;21.80;97.40;;;;;;5074151;28;20119;-78
2022/06/05 08:27:11;;;;;;;6.15;4.85;;;21.90;97.40;;;;;;5072321;28;20055;-78
2022/06/05 08:29:37;;;;;;;7.88;6.65;;;22.00;97.10;;;;;;5080788;28;20067;-78
2022/06/05 08:32:04;;;;;;;7.13;6.25;;;22.20;96.10;;;;;;5089910;28;20046;-78
2022/06/05 08:34:30;;;;;;;6.85;6.15;;;22.20;95.20;;;;;;5091479;28;20043;-78
2022/06/05 08:42:58;;;;;;;6.15;5.43;;;22.40;94.50;;;;;;5089482;28;20044;-78
2022/06/05 08:45:33;;;;;;;7.18;6.45;;;22.50;92.80;;;;;;5091280;28;20085;-78
2022/06/05 08:48:05;;;;;;;7.30;6.60;;;22.50;93.70;;;;;;5076211;28;20072;-78
2022/06/05 08:50:50;;;;;;;7.80;6.85;;;22.50;92.60;;;;;;5068948;28;20074;-79
2022/06/05 08:53:25;;;;;;;7.77;5.47;;;22.40;92.10;;;;;;5077984;28;20127;-80
2022/06/05 08:55:53;;;;;;;9.90;6.82;;;22.30;93.50;;;;;;5083955;28;20340;-78
2022/06/05 08:58:43;;;;;;;6.90;6.18;;;22.30;94.00;;;;;;5078058;28;20036;-78
2022/06/05 09:01:31;;;;;;;6.63;5.63;;;22.40;93.60;;;;;;5077905;28;20043;-78
2022/06/05 09:04:22;;;;;;;8.23;5.30;;;22.40;93.50;;;;;;5080045;28;20048;-78
2022/06/05 09:06:55;;;;;;;7.00;6.28;;;22.40;94.00;;;;;;5062350;28;20047;-78
2022/06/05 09:09:25;;;;;;;7.28;5.97;;;22.60;94.10;;;;;;5084598;28;20040;-79
2022/06/05 09:11:58;;;;;;;6.28;5.20;;;22.80;93.60;;;;;;5071744;28;20102;-79
2022/06/05 09:14:48;;;;;;;7.55;6.10;;;23.20;93.30;;;;;;5079219;28;20047;-79
2022/06/05 09:17:16;;;;;;;8.93;7.20;;;23.50;91.30;;;;;;5049567;28;20048;-79
2022/06/05 09:19:43;;;;;;;5.65;5.15;;;23.70;92.00;;;;;;5073167;28;20044;-79
2022/06/05 09:22:41;;;;;;;5.88;5.38;;;23.80;91.00;;;;;;5074182;28;20048;-79
2022/06/05 09:25:27;;;;;;;10.55;6.03;;;23.90;89.70;;;;;;5080096;28;20454;-79
2022/06/05 09:28:12;;;;;;;7.30;6.35;;;24.30;90.00;;;;;;5077327;28;20071;-79
2022/06/05 09:30:59;;;;;;;6.25;5.15;;;24.60;85.80;;;;;;5076327;28;20041;-79
2022/06/05 09:33:34;;;;;;;6.75;5.65;;;24.50;84.60;;;;;;5084084;28;20041;-79
2022/06/05 09:36:11;;;;;;;6.53;5.82;;;24.30;83.50;;;;;;5080900;28;20075;-80
2022/06/05 09:38:43;;;;;;;9.70;8.35;;;24.20;83.70;;;;;;5081688;28;20054;-79
2022/06/05 09:41:11;;;;;;;20.38;15.77;;;24.10;85.20;;;;;;5065971;28;20048;-79
2022/06/05 09:44:20;;;;;;;19.15;16.17;;;24.20;86.70;;;;;;5084707;28;20052;-79
2022/06/05 09:47:01;;;;;;;8.63;6.72;;;24.30;81.60;;;;;;5062956;28;20503;-79
2022/06/05 09:49:35;;;;;;;11.30;8.88;;;24.20;84.30;;;;;;5077927;28;20128;-79
2022/06/05 09:52:24;;;;;;;6.53;5.93;;;24.30;85.50;;;;;;5081299;28;20045;-80
2022/06/05 09:55:08;;;;;;;7.55;6.22;;;24.50;81.60;;;;;;5085979;28;20490;-79
2022/06/05 10:00:47;;;;;;;6.57;5.43;;;24.60;85.10;;;;;;5081638;28;20033;-79
2022/06/05 10:03:16;;;;;;;9.48;6.20;;;24.70;84.10;;;;;;5082748;28;20520;-79
2022/06/05 10:05:45;;;;;;;7.00;5.80;;;24.90;83.80;;;;;;5079014;28;20384;-79
2022/06/05 10:08:17;;;;;;;6.10;5.40;;;25.20;81.80;;;;;;5083581;28;20491;-79
2022/06/05 10:10:45;;;;;;;6.20;5.60;;;25.10;78.00;;;;;;5080733;28;20518;-79
2022/06/05 10:13:19;;;;;;;6.18;5.47;;;25.20;79.40;;;;;;5064631;28;20047;-79
2022/06/05 10:16:02;;;;;;;6.10;5.57;;;25.30;78.90;;;;;;5082430;28;20036;-80
2022/06/05 10:18:38;;;;;;;5.07;4.43;;;25.30;79.60;;;;;;5083235;28;20470;-79
2022/06/05 10:21:11;;;;;;;6.78;5.72;;;25.30;80.00;;;;;;5080903;28;20114;-79
2022/06/05 10:23:40;;;;;;;5.80;5.28;;;25.50;80.00;;;;;;5066667;28;20036;-79
2022/06/05 10:26:24;;;;;;;6.20;5.60;;;25.70;78.00;;;;;;5083822;28;20031;-80
2022/06/05 10:28:53;;;;;;;5.22;4.82;;;25.80;78.10;;;;;;5081449;28;20479;-79
2022/06/05 10:31:21;;;;;;;5.95;4.72;;;25.90;76.50;;;;;;5064789;28;20066;-80
2022/06/05 10:34:30;;;;;;;4.90;4.43;;;25.90;75.80;;;;;;5080140;28;20078;-80
2022/06/05 10:37:10;;;;;;;5.20;4.70;;;25.90;76.30;;;;;;5081818;28;20521;-80
2022/06/05 10:40:04;;;;;;;6.28;4.95;;;26.20;77.40;;;;;;5081112;28;20048;-79
2022/06/05 10:42:44;;;;;;;5.60;5.13;;;26.30;74.00;;;;;;5083746;28;20032;-80
2022/06/05 10:45:42;;;;;;;5.95;5.55;;;26.30;75.30;;;;;;5080873;28;20044;-79
2022/06/05 10:48:13;;;;;;;5.80;5.32;;;26.00;72.10;;;;;;5083209;28;20044;-77
2022/06/05 10:50:51;;;;;;;5.55;5.05;;;25.90;73.90;;;;;;5076736;28;20138;-77
2022/06/05 10:53:37;;;;;;;5.38;4.97;;;25.90;73.00;;;;;;5080259;28;20048;-77
2022/06/05 10:56:11;;;;;;;5.80;5.30;;;26.10;75.80;;;;;;5079770;28;20064;-78
2022/06/05 10:59:05;;;;;;;5.25;4.75;;;26.10;74.50;;;;;;5081104;28;20101;-78
2022/06/05 11:02:04;;;;;;;6.20;5.60;;;26.30;76.30;;;;;;5079608;28;20154;-78
2022/06/05 11:04:45;;;;;;;5.65;5.03;;;26.30;72.00;;;;;;5063798;28;20040;-77
2022/06/05 11:07:34;;;;;;;5.63;5.07;;;26.40;75.00;;;;;;5080916;28;20046;-78
2022/06/05 11:10:21;;;;;;;5.93;5.07;;;26.50;72.00;;;;;;5082643;28;20052;-78
2022/06/05 11:16:12;;;;;;;10.05;8.77;;;26.30;71.40;;;;;;5088336;28;20048;-77
2022/06/05 11:18:49;;;;;;;6.35;5.05;;;26.40;71.90;;;;;;5085551;28;20040;-78
2022/06/05 11:21:21;;;;;;;7.82;7.07;;;26.50;71.10;;;;;;5085112;28;20044;-78
2022/06/05 11:23:50;;;;;;;19.67;15.13;;;26.50;71.40;;;;;;5086776;28;20475;-77
2022/06/05 11:26:53;;;;;;;5.97;4.85;;;26.60;71.40;;;;;;5084410;28;20040;-78
2022/06/05 11:29:21;;;;;;;7.35;6.22;;;26.70;70.40;;;;;;5084529;28;20477;-78
2022/06/05 11:31:54;;;;;;;4.75;4.45;;;26.70;70.60;;;;;;5084212;28;20448;-77
2022/06/05 11:34:41;;;;;;;4.93;4.53;;;26.50;71.50;;;;;;5085938;28;20450;-78
2022/06/05 11:37:44;;;;;;;5.32;4.35;;;26.40;71.80;;;;;;5082126;28;20032;-78
2022/06/05 11:40:12;;;;;;;5.13;4.72;;;26.20;70.70;;;;;;5083609;28;20047;-78
2022/06/05 11:42:49;;;;;;;5.80;5.40;;;26.20;71.70;;;;;;5082268;28;20059;-78
2022/06/05 11:45:28;;;;;;;5.13;4.40;;;26.30;71.30;;;;;;5069523;28;20071;-78
2022/06/05 11:48:05;;;;;;;4.72;4.28;;;26.40;71.50;;;;;;5084055;28;20073;-78
2022/06/05 11:50:44;;;;;;;5.38;4.88;;;26.50;71.70;;;;;;5083158;28;20174;-78
2022/06/05 11:53:30;;;;;;;5.22;4.82;;;26.50;71.60;;;;;;5086279;28;20119;-77
2022/06/05 11:56:04;;;;;;;4.78;4.35;;;26.60;70.60;;;;;;5084964;28;20109;-78
2022/06/05 11:58:47;;;;;;;5.22;4.78;;;26.60;70.30;;;;;;5093175;28;20078;-78
2022/06/05 12:01:36;;;;;;;4.88;4.32;;;26.50;69.70;;;;;;5086872;28;20054;-78
2022/06/05 12:04:05;;;;;;;5.72;4.85;;;26.20;67.70;;;;;;5085351;28;20087;-78
2022/06/05 12:06:40;;;;;;;5.28;4.78;;;25.80;68.90;;;;;;5084739;28;20067;-78
2022/06/05 12:09:18;;;;;;;5.65;5.25;;;25.60;70.20;;;;;;5084418;28;20097;-78
2022/06/05 12:12:17;;;;;;;8.07;4.97;;;25.60;71.10;;;;;;5082855;28;20094;-78
2022/06/05 12:15:00;;;;;;;5.43;5.03;;;25.50;70.60;;;;;;5048276;28;20140;-78
2022/06/05 12:17:43;;;;;;;5.30;4.90;;;25.30;71.50;;;;;;5085236;28;20491;-78
2022/06/05 12:20:20;;;;;;;6.22;5.40;;;25.20;72.10;;;;;;5083994;28;20040;-78
2022/06/05 12:22:50;;;;;;;5.57;5.18;;;25.20;72.40;;;;;;5064573;28;20097;-78
2022/06/05 12:25:52;;;;;;;6.32;5.72;;;25.00;72.50;;;;;;5100068;28;20076;-78
2022/06/05 12:28:39;;;;;;;5.68;5.18;;;25.00;73.00;;;;;;5027470;28;20059;-78
2022/06/05 12:31:22;;;;;;;4.82;4.32;;;24.80;73.80;;;;;;5083195;28;20047;-78
2022/06/05 12:34:03;;;;;;;6.10;5.03;;;24.60;73.30;;;;;;5082599;28;20810;-79
2022/06/05 12:36:34;;;;;;;5.75;5.32;;;24.50;74.20;;;;;;5078641;28;20488;-79
2022/06/05 12:39:06;;;;;;;6.00;4.95;;;24.40;74.50;;;;;;5085082;28;20407;-78
2022/06/05 12:41:41;;;;;;;8.27;6.70;;;24.30;73.70;;;;;;5063272;28;20055;-78
2022/06/05 12:44:24;;;;;;;5.47;4.97;;;24.20;74.80;;;;;;5081689;28;20048;-78
2022/06/05 12:46:53;;;;;;;6.10;5.53;;;24.20;74.40;;;;;;5072290;28;20051;-79
2022/06/05 12:49:54;;;;;;;5.80;5.10;;;24.20;74.40;;;;;;5071533;28;20105;-79
2022/06/05 12:52:42;;;;;;;5.38;4.55;;;24.10;75.00;;;;;;5074696;28;20085;-79
2022/06/05 12:55:14;;;;;;;5.35;4.78;;;24.20;75.80;;;;;;5074717;28;20106;-79
2022/06/05 12:57:46;;;;;;;6.82;5.45;;;24.20;74.80;;;;;;5087249;28;20127;-79
2022/06/05 13:00:36;;;;;;;6.40;3.88;;;24.30;76.00;;;;;;5091498;28;20085;-77
2022/06/05 13:03:29;;;;;;;4.95;4.15;;;24.40;76.00;;;;;;5079831;28;20143;-78
2022/06/05 13:06:05;;;;;;;4.07;3.78;;;24.60;75.20;;;;;;5071714;28;20059;-77
2022/06/05 13:08:40;;;;;;;5.72;5.03;;;24.90;74.40;;;;;;5071510;28;20051;-77
2022/06/05 13:11:11;;;;;;;4.68;4.20;;;25.10;75.40;;;;;;5071858;28;20052;-77
2022/06/05 13:13:58;;;;;;;5.10;4.70;;;25.20;75.50;;;;;;5079941;28;20032;-77
2022/06/05 13:16:46;;;;;;;5.32;4.22;;;25.20;74.80;;;;;;5080330;28;20049;-77
2022/06/05 13:19:34;;;;;;;5.05;4.65;;;25.20;72.30;;;;;;5080216;28;20067;-77
2022/06/05 13:22:06;;;;;;;7.20;5.38;;;25.20;75.00;;;;;;5066391;28;20459;-77
2022/06/05 13:25:02;;;;;;;6.00;4.38;;;25.10;72.70;;;;;;5082803;28;20078;-77
2022/06/05 13:28:02;;;;;;;8.63;4.45;;;25.10;73.40;;;;;;5057637;28;20079;-77